Ravalli County (6S5)
Hamilton, MT
Field Elevation: 3642
Lat: 45°15.05N  Long: 114°07.31W
CTAF/Unicom Freq: 122.8000
   
     For Weather-by-Phone, call 406-375-9149
Weather Advisories
11/28/2014 16:35 Z
Altimeter 29.68" Hg
Wind 177° @ 9 KT
Gusts --
Visibility 10 SM
Temperature 7° C (45° F)
Dewpoint 3° C (37° F)
Relative Humidity 78%
Density Altitude 3,757 feet
Condensation Altitude 5,309 feet
Wind Chill 4° C (39° F)
  Wind and Runways
Indicated Runway = 16
History
 
 
More Info
All DigiWx sites map
NOAA Forecast
 
Airport IQ 5010
(S59) Libby
(79S) Fort Benton
 
about DigiWx
 
FAA Disclaimer: The data displayed is for advisory purposes only and is not to be used for flight planning or operations. For official data, please call 406-375-9149 to hear the current automated AWOS voice message.
  METAR 6S5 281635Z AUTO 18009KT 10SM 07/03 A2968